createdAt,value
2018-09-30T00:01:54.642Z,10.43
2018-09-30T00:04:28.691Z,6.43
2018-09-30T00:07:02.874Z,6.70
2018-09-30T00:09:37.301Z,7.87
2018-09-30T00:12:11.461Z,6.17
2018-09-30T00:14:46.235Z,6.07
2018-09-30T00:17:20.543Z,7.27
2018-09-30T00:19:54.637Z,8.03
2018-09-30T00:22:29.261Z,7.23
2018-09-30T00:25:08.820Z,7.10
2018-09-30T00:27:44.645Z,6.57
2018-09-30T00:30:18.837Z,7.77
2018-09-30T00:32:52.909Z,5.53
2018-09-30T00:35:27.762Z,6.20
2018-09-30T00:38:01.857Z,8.37
2018-09-30T00:40:35.903Z,6.60
2018-09-30T00:43:09.950Z,6.03
2018-09-30T00:45:44.739Z,5.87
2018-09-30T00:48:18.838Z,8.67
2018-09-30T00:50:53.934Z,6.87
2018-09-30T00:53:27.775Z,9.23
2018-09-30T00:56:01.790Z,6.00
2018-09-30T00:58:36.871Z,6.17
2018-09-30T01:01:11.853Z,7.33
2018-09-30T01:03:45.844Z,4.90
2018-09-30T01:06:20.226Z,5.63
2018-09-30T01:08:55.526Z,7.60
2018-09-30T01:11:29.641Z,6.93
2018-09-30T01:14:04.266Z,7.30
2018-09-30T01:16:38.429Z,5.83
2018-09-30T01:19:13.180Z,4.63
2018-09-30T01:21:47.315Z,6.43
2018-09-30T01:24:21.834Z,2.97
2018-09-30T01:26:56.715Z,4.67
2018-09-30T01:29:31.271Z,6.53
2018-09-30T01:32:05.714Z,5.00
2018-09-30T01:34:39.821Z,4.97
2018-09-30T01:37:13.963Z,6.20
2018-09-30T01:39:48.326Z,3.93
2018-09-30T01:42:22.719Z,7.17
2018-09-30T01:44:57.004Z,5.17
2018-09-30T01:47:31.065Z,4.90
2018-09-30T01:50:05.164Z,4.97
2018-09-30T01:52:56.951Z,5.10
2018-09-30T01:55:31.058Z,3.87
2018-09-30T01:58:05.109Z,5.60
2018-09-30T02:00:40.160Z,5.13
2018-09-30T02:03:14.359Z,9.80
2018-09-30T02:05:48.480Z,5.93
2018-09-30T02:08:22.515Z,4.27
2018-09-30T02:10:57.301Z,9.90
2018-09-30T02:13:31.837Z,5.80
2018-09-30T02:16:06.190Z,6.87
2018-09-30T02:18:40.191Z,8.70
2018-09-30T02:21:14.410Z,4.27
2018-09-30T02:23:49.694Z,6.10
2018-09-30T02:26:25.135Z,11.70
2018-09-30T02:28:59.611Z,6.43
2018-09-30T02:31:33.663Z,6.23
2018-09-30T02:34:07.866Z,8.33
2018-09-30T02:36:41.821Z,4.83
2018-09-30T02:39:15.699Z,4.73
2018-09-30T02:41:49.953Z,4.53
2018-09-30T02:44:24.376Z,7.07
2018-09-30T02:47:01.593Z,6.43
2018-09-30T02:49:36.866Z,8.33
2018-09-30T02:52:11.240Z,8.17
2018-09-30T02:54:45.407Z,9.17
2018-09-30T02:57:19.591Z,6.00
2018-09-30T02:59:54.449Z,5.93
2018-09-30T03:02:28.698Z,5.83
2018-09-30T03:05:02.789Z,6.97
2018-09-30T03:07:43.155Z,6.27
2018-09-30T03:10:17.148Z,7.10
2018-09-30T03:12:51.254Z,5.63
2018-09-30T03:15:25.973Z,5.47
2018-09-30T03:18:00.869Z,7.47
2018-09-30T03:20:35.051Z,6.17
2018-09-30T03:23:09.884Z,4.97
2018-09-30T03:25:43.755Z,7.33
2018-09-30T03:28:17.937Z,5.27
2018-09-30T03:30:51.930Z,6.33
2018-09-30T03:33:26.633Z,5.43
2018-09-30T03:36:00.458Z,5.97
2018-09-30T03:38:34.626Z,10.23
2018-09-30T03:41:08.616Z,5.43
2018-09-30T03:43:43.615Z,4.70
2018-09-30T03:46:21.741Z,4.57
2018-09-30T03:48:55.901Z,9.63
2018-09-30T03:51:30.659Z,5.43
2018-09-30T03:54:04.712Z,5.07
2018-09-30T03:56:39.480Z,8.27
2018-09-30T03:59:13.465Z,7.57
2018-09-30T04:01:47.204Z,6.43
2018-09-30T04:04:21.302Z,4.70
2018-09-30T04:06:56.069Z,4.80
2018-09-30T04:09:30.738Z,6.73
2018-09-30T04:12:05.325Z,6.90
2018-09-30T04:14:39.519Z,6.57
2018-09-30T04:17:14.451Z,6.80
2018-09-30T04:19:48.704Z,4.40
2018-09-30T04:22:29.777Z,7.87
2018-09-30T04:25:04.254Z,5.47
2018-09-30T04:27:38.319Z,4.70
2018-09-30T04:30:12.474Z,5.57
2018-09-30T04:32:47.890Z,4.77
2018-09-30T04:35:22.085Z,5.00
2018-09-30T04:37:56.160Z,4.43
2018-09-30T04:40:31.199Z,5.63
2018-09-30T04:43:05.879Z,5.57
2018-09-30T04:45:40.564Z,6.10
2018-09-30T04:48:15.444Z,5.13
2018-09-30T04:50:49.525Z,5.97
2018-09-30T04:53:23.885Z,6.47
2018-09-30T04:55:57.781Z,6.60
2018-09-30T04:58:32.471Z,5.77
2018-09-30T05:01:06.811Z,6.77
2018-09-30T05:03:40.895Z,8.73
2018-09-30T05:06:15.384Z,7.50
2018-09-30T05:08:49.495Z,4.63
2018-09-30T05:11:23.874Z,7.33
2018-09-30T05:13:58.370Z,9.20
2018-09-30T05:16:33.027Z,7.33
2018-09-30T05:19:07.044Z,5.20
2018-09-30T05:21:40.948Z,7.70
2018-09-30T05:24:15.664Z,6.97
2018-09-30T05:26:50.314Z,9.67
2018-09-30T05:29:24.833Z,7.60
2018-09-30T05:31:58.985Z,7.63
2018-09-30T05:34:33.195Z,4.93
2018-09-30T05:37:07.919Z,7.67
2018-09-30T05:39:42.383Z,7.60
2018-09-30T05:42:16.570Z,6.77
2018-09-30T05:44:50.545Z,7.57
2018-09-30T05:47:25.525Z,5.50
2018-09-30T05:50:06.459Z,8.63
2018-09-30T05:52:41.604Z,8.37
2018-09-30T05:55:15.875Z,5.53
2018-09-30T05:57:50.004Z,8.77
2018-09-30T06:00:24.641Z,7.93
2018-09-30T06:02:58.622Z,5.43
2018-09-30T06:05:32.584Z,5.43
2018-09-30T06:08:06.806Z,6.00
2018-09-30T06:10:41.244Z,5.80
2018-09-30T06:13:15.316Z,6.03
2018-09-30T06:15:49.850Z,7.17
2018-09-30T06:18:24.205Z,7.43
2018-09-30T06:20:58.500Z,7.27
2018-09-30T06:23:32.614Z,8.03
2018-09-30T06:26:07.294Z,4.47
2018-09-30T06:28:41.469Z,4.80
2018-09-30T06:31:15.648Z,10.13
2018-09-30T06:33:50.108Z,6.70
2018-09-30T06:36:24.124Z,6.60
2018-09-30T06:38:58.408Z,6.97
2018-09-30T06:41:32.535Z,5.63
2018-09-30T06:44:07.471Z,8.23
2018-09-30T06:46:42.359Z,4.97
2018-09-30T06:49:16.914Z,4.33
2018-09-30T06:51:51.760Z,8.33
2018-09-30T06:54:26.374Z,4.33
2018-09-30T06:57:00.585Z,6.03
2018-09-30T06:59:34.509Z,7.10
2018-09-30T07:02:08.704Z,4.87
2018-09-30T07:04:42.819Z,4.60
2018-09-30T07:07:17.149Z,8.03
2018-09-30T07:09:51.790Z,6.17
2018-09-30T07:12:25.984Z,6.23
2018-09-30T07:15:00.708Z,8.20
2018-09-30T07:17:34.604Z,5.07
2018-09-30T07:20:08.886Z,7.80
2018-09-30T07:22:43.188Z,6.07
2018-09-30T07:25:17.185Z,6.20
2018-09-30T07:27:51.451Z,7.03
2018-09-30T07:30:25.702Z,4.17
2018-09-30T07:33:00.776Z,6.27
2018-09-30T07:35:35.006Z,5.00
2018-09-30T07:38:09.556Z,5.53
2018-09-30T07:40:43.489Z,4.17
2018-09-30T07:43:17.656Z,4.00
2018-09-30T07:45:52.665Z,6.60
2018-09-30T07:48:26.774Z,6.73
2018-09-30T07:51:01.649Z,3.50
2018-09-30T07:53:36.097Z,7.40
2018-09-30T07:56:12.739Z,5.37
2018-09-30T07:58:48.017Z,6.93
2018-09-30T08:01:22.431Z,6.60
2018-09-30T08:03:57.402Z,4.57
2018-09-30T08:06:31.923Z,5.17
2018-09-30T08:09:08.248Z,4.63
2018-09-30T08:11:42.939Z,6.03
2018-09-30T08:14:17.655Z,3.27
2018-09-30T08:16:52.214Z,4.53
2018-09-30T08:19:26.282Z,5.23
2018-09-30T08:22:00.426Z,3.67
2018-09-30T08:24:35.360Z,3.20
2018-09-30T08:27:10.234Z,4.80
2018-09-30T08:29:44.231Z,4.33
2018-09-30T08:32:18.383Z,4.17
2018-09-30T08:34:52.697Z,5.07
2018-09-30T08:37:32.249Z,4.27
2018-09-30T08:40:07.208Z,8.87
2018-09-30T08:42:41.357Z,4.13
2018-09-30T08:45:15.939Z,5.80
2018-09-30T08:47:50.775Z,3.23
2018-09-30T08:50:24.709Z,3.80
2018-09-30T08:52:59.360Z,4.77
2018-09-30T08:55:34.440Z,6.47
2018-09-30T08:58:09.786Z,2.87
2018-09-30T09:00:43.916Z,5.77
2018-09-30T09:03:18.101Z,4.47
2018-09-30T09:05:52.281Z,4.00
2018-09-30T09:08:26.558Z,3.23
2018-09-30T09:11:00.545Z,3.17
2018-09-30T09:13:34.736Z,4.93
2018-09-30T09:16:09.453Z,4.03
2018-09-30T09:18:44.517Z,5.80
2018-09-30T09:21:19.522Z,3.83
2018-09-30T09:23:53.786Z,4.03
2018-09-30T09:26:28.936Z,2.83
2018-09-30T09:29:03.151Z,3.33
2018-09-30T09:31:38.025Z,3.63
2018-09-30T09:34:12.677Z,3.13
2018-09-30T09:36:46.755Z,4.40
2018-09-30T09:39:20.914Z,4.97
2018-09-30T09:41:55.989Z,6.00
2018-09-30T09:44:30.444Z,4.20
2018-09-30T09:47:04.789Z,5.60
2018-09-30T09:49:39.231Z,2.40
2018-09-30T09:52:13.647Z,4.33
2018-09-30T09:54:47.907Z,4.93
2018-09-30T09:57:22.396Z,2.97
2018-09-30T09:59:57.060Z,4.77
2018-09-30T10:02:31.297Z,5.57
2018-09-30T10:05:05.479Z,4.60
2018-09-30T10:07:39.891Z,4.27
2018-09-30T10:10:14.470Z,6.27
2018-09-30T10:12:48.401Z,3.67
2018-09-30T10:15:22.744Z,4.60
2018-09-30T10:17:57.945Z,4.93
2018-09-30T10:20:32.676Z,5.53
2018-09-30T10:23:07.146Z,3.10
2018-09-30T10:25:41.081Z,3.07
2018-09-30T10:28:15.802Z,6.50
2018-09-30T10:30:50.614Z,4.47
2018-09-30T10:33:25.519Z,5.77
2018-09-30T10:36:00.430Z,4.53
2018-09-30T10:38:34.513Z,6.80
2018-09-30T10:41:09.525Z,3.37
2018-09-30T10:43:43.527Z,5.30
2018-09-30T10:46:17.907Z,4.50
2018-09-30T10:48:52.297Z,4.57
2018-09-30T10:51:26.690Z,4.50
2018-09-30T10:54:00.857Z,7.20
2018-09-30T10:56:40.846Z,5.83
2018-09-30T10:59:15.133Z,3.53
2018-09-30T11:01:49.796Z,4.73
2018-09-30T11:04:24.490Z,3.50
2018-09-30T11:06:59.110Z,4.97
2018-09-30T11:09:33.477Z,4.37
2018-09-30T11:12:07.965Z,4.03
2018-09-30T11:14:42.169Z,4.97
2018-09-30T11:17:16.635Z,6.10
2018-09-30T11:19:50.634Z,5.80
2018-09-30T11:22:24.872Z,7.70
2018-09-30T11:24:59.195Z,3.93
2018-09-30T11:27:34.213Z,5.33
2018-09-30T11:30:11.129Z,3.50
2018-09-30T11:32:45.296Z,9.00
2018-09-30T11:35:19.727Z,4.87
2018-09-30T11:37:54.020Z,4.70
2018-09-30T11:40:28.820Z,3.47
2018-09-30T11:43:03.234Z,7.80
2018-09-30T11:45:37.442Z,5.60
2018-09-30T11:48:13.995Z,5.30
2018-09-30T11:50:47.914Z,5.03
2018-09-30T11:53:22.360Z,5.87
2018-09-30T11:55:57.160Z,5.10
2018-09-30T11:58:32.175Z,5.53
2018-09-30T12:01:06.967Z,7.90
2018-09-30T12:03:41.125Z,7.55
2018-09-30T12:06:15.820Z,5.85
2018-09-30T12:08:49.832Z,5.20
2018-09-30T12:11:24.246Z,5.55
2018-09-30T12:13:58.155Z,5.83
2018-09-30T12:16:32.800Z,4.47
2018-09-30T12:19:07.386Z,5.12
2018-09-30T12:21:41.975Z,5.17
2018-09-30T12:24:16.199Z,5.53
2018-09-30T12:26:50.772Z,5.10
2018-09-30T12:29:24.915Z,6.42
2018-09-30T12:31:59.286Z,5.22
2018-09-30T12:34:34.461Z,4.65
2018-09-30T12:37:08.855Z,4.00
2018-09-30T12:39:43.953Z,4.17
2018-09-30T12:42:19.024Z,4.15
2018-09-30T12:44:53.365Z,7.15
2018-09-30T12:47:28.272Z,6.20
2018-09-30T12:50:02.476Z,7.97
2018-09-30T12:52:37.362Z,8.10
2018-09-30T12:55:11.775Z,6.42
2018-09-30T12:57:47.116Z,3.67
2018-09-30T13:00:21.821Z,6.97
2018-09-30T13:02:56.118Z,6.53
2018-09-30T13:05:30.694Z,5.72
2018-09-30T13:08:06.161Z,5.62
2018-09-30T13:10:41.179Z,7.33
2018-09-30T13:13:15.420Z,4.45
2018-09-30T13:15:50.058Z,9.08
2018-09-30T13:18:25.159Z,5.90
2018-09-30T13:20:59.651Z,6.72
2018-09-30T13:23:33.779Z,5.72
2018-09-30T13:26:08.167Z,5.25
2018-09-30T13:28:42.999Z,5.17
2018-09-30T13:31:16.944Z,8.30
2018-09-30T13:33:51.180Z,7.25
2018-09-30T13:36:25.735Z,6.40
2018-09-30T13:39:00.647Z,5.00
2018-09-30T13:41:35.161Z,5.45
2018-09-30T13:44:09.507Z,4.85
2018-09-30T13:46:44.045Z,4.95
2018-09-30T13:49:19.519Z,8.75
2018-09-30T13:51:53.800Z,5.17
2018-09-30T13:54:31.352Z,5.15
2018-09-30T13:57:06.761Z,4.80
2018-09-30T13:59:41.471Z,6.67
2018-09-30T14:02:15.594Z,6.83
2018-09-30T14:04:49.695Z,6.05
2018-09-30T14:07:24.326Z,6.50
2018-09-30T14:09:58.890Z,5.50
2018-09-30T14:12:33.705Z,5.22
2018-09-30T14:15:08.342Z,8.93
2018-09-30T14:17:42.631Z,4.90
2018-09-30T14:20:16.792Z,5.78
2018-09-30T14:22:51.311Z,7.50
2018-09-30T14:25:26.432Z,7.78
2018-09-30T14:28:00.830Z,5.10
2018-09-30T14:30:35.310Z,6.05
2018-09-30T14:33:09.928Z,7.45
2018-09-30T14:35:44.330Z,6.10
2018-09-30T14:38:18.811Z,7.00
2018-09-30T14:40:53.326Z,6.00
2018-09-30T14:43:27.810Z,6.08
2018-09-30T14:46:02.082Z,7.90
2018-09-30T14:48:36.509Z,5.72
2018-09-30T14:51:10.711Z,6.00
2018-09-30T14:53:45.856Z,7.12
2018-09-30T14:56:19.834Z,6.83
2018-09-30T14:58:54.787Z,11.33
2018-09-30T15:01:29.506Z,6.90
2018-09-30T15:04:04.943Z,5.95
2018-09-30T15:06:39.394Z,5.70
2018-09-30T15:09:13.984Z,5.12
2018-09-30T15:11:48.267Z,8.28
2018-09-30T15:14:22.530Z,7.40
2018-09-30T15:16:56.798Z,7.92
2018-09-30T15:19:34.013Z,5.42
2018-09-30T15:22:07.982Z,7.80
2018-09-30T15:24:42.809Z,4.87
2018-09-30T15:27:17.168Z,6.12
2018-09-30T15:29:51.581Z,6.08
2018-09-30T15:32:26.098Z,5.40
2018-09-30T15:35:00.566Z,5.28
2018-09-30T15:37:34.526Z,5.35
2018-09-30T15:40:09.406Z,5.22
2018-09-30T15:42:44.176Z,7.35
2018-09-30T15:45:18.669Z,5.92
2018-09-30T15:47:52.912Z,6.22
2018-09-30T15:50:27.587Z,6.87
2018-09-30T15:53:01.996Z,4.40
2018-09-30T15:55:37.032Z,5.45
2018-09-30T15:58:12.346Z,6.00
2018-09-30T16:00:47.159Z,5.83
2018-09-30T16:03:21.546Z,5.00
2018-09-30T16:05:56.017Z,4.67
2018-09-30T16:08:30.339Z,5.40
2018-09-30T16:11:04.883Z,5.42
2018-09-30T16:13:39.427Z,7.72
2018-09-30T16:16:13.694Z,6.53
2018-09-30T16:18:48.377Z,5.50
2018-09-30T16:21:23.641Z,4.60
2018-09-30T16:23:58.656Z,6.72
2018-09-30T16:26:32.790Z,5.62
2018-09-30T16:29:06.874Z,6.33
2018-09-30T16:31:41.474Z,6.17
2018-09-30T16:34:16.123Z,4.45
2018-09-30T16:36:50.653Z,7.25
2018-09-30T16:39:24.530Z,5.50
2018-09-30T16:41:58.749Z,4.33
2018-09-30T16:44:33.009Z,8.63
2018-09-30T16:47:07.212Z,4.83
2018-09-30T16:49:41.358Z,6.27
2018-09-30T16:52:15.596Z,6.20
2018-09-30T16:54:49.406Z,5.50
2018-09-30T16:57:23.875Z,7.77
2018-09-30T16:59:58.484Z,3.60
2018-09-30T17:02:33.189Z,6.03
2018-09-30T17:05:08.031Z,4.97
2018-09-30T17:07:42.565Z,5.57
2018-09-30T17:10:18.216Z,6.10
2018-09-30T17:12:52.755Z,6.50
2018-09-30T17:15:26.913Z,5.63
2018-09-30T17:18:01.157Z,10.17
2018-09-30T17:20:35.553Z,8.27
2018-09-30T17:23:09.638Z,6.13
2018-09-30T17:25:44.022Z,7.97
2018-09-30T17:28:18.360Z,7.50
2018-09-30T17:30:52.612Z,5.23
2018-09-30T17:33:27.120Z,6.63
2018-09-30T17:36:02.014Z,6.00
2018-09-30T17:38:36.876Z,8.33
2018-09-30T17:41:11.970Z,10.00
2018-09-30T17:43:46.437Z,9.17
2018-09-30T17:46:20.731Z,7.47
2018-09-30T17:48:55.375Z,10.90
2018-09-30T17:51:30.415Z,11.73
2018-09-30T17:54:04.888Z,10.43
2018-09-30T17:56:39.114Z,10.33
2018-09-30T17:59:13.408Z,9.57
2018-09-30T18:01:47.967Z,8.90
2018-09-30T18:04:22.899Z,10.93
2018-09-30T18:06:57.155Z,7.03
2018-09-30T18:09:31.433Z,13.40
2018-09-30T18:12:05.915Z,8.07
2018-09-30T18:14:40.088Z,11.67
2018-09-30T18:17:14.706Z,10.73
2018-09-30T18:19:48.814Z,9.93
2018-09-30T18:22:22.955Z,7.37
2018-09-30T18:24:57.379Z,12.33
2018-09-30T18:27:31.550Z,9.37
2018-09-30T18:30:06.527Z,9.67
2018-09-30T18:32:40.507Z,12.67
2018-09-30T18:35:14.745Z,10.60
2018-09-30T18:37:49.240Z,7.63
2018-09-30T18:40:23.877Z,8.90
2018-09-30T18:42:58.942Z,8.77
2018-09-30T18:45:33.511Z,10.03
2018-09-30T18:48:08.888Z,9.10
2018-09-30T18:50:43.462Z,14.60
2018-09-30T18:53:18.167Z,9.00
2018-09-30T18:55:52.953Z,13.23
2018-09-30T18:58:27.542Z,9.17
2018-09-30T19:01:03.484Z,10.60
2018-09-30T19:03:38.265Z,10.40
2018-09-30T19:06:13.036Z,9.10
2018-09-30T19:08:47.752Z,8.50
2018-09-30T19:11:22.657Z,9.83
2018-09-30T19:13:57.451Z,9.23
2018-09-30T19:16:32.156Z,9.77
2018-09-30T19:19:06.830Z,7.40
2018-09-30T19:21:41.900Z,11.73
2018-09-30T19:24:16.678Z,11.27
2018-09-30T19:26:51.097Z,12.37
2018-09-30T19:29:25.850Z,15.67
2018-09-30T19:32:01.020Z,10.87
2018-09-30T19:34:35.161Z,13.23
2018-09-30T19:37:10.303Z,12.97
2018-09-30T19:39:44.595Z,13.17
2018-09-30T19:42:18.787Z,9.67
2018-09-30T19:44:53.381Z,13.07
2018-09-30T19:47:32.449Z,11.80
2018-09-30T19:50:08.435Z,9.07
2018-09-30T19:52:42.597Z,12.27
2018-09-30T19:55:17.988Z,11.50
2018-09-30T19:57:52.151Z,10.70
2018-09-30T20:00:26.949Z,10.67
2018-09-30T20:03:01.177Z,9.90
2018-09-30T20:05:35.324Z,10.37
2018-09-30T20:08:21.756Z,9.87
2018-09-30T20:10:55.986Z,12.27
2018-09-30T20:13:30.026Z,14.30
2018-09-30T20:16:04.982Z,12.77
2018-09-30T20:18:39.051Z,10.87
2018-09-30T20:21:14.146Z,13.67
2018-09-30T20:23:48.341Z,11.27
2018-09-30T20:26:22.730Z,15.13
2018-09-30T20:28:57.457Z,11.37
2018-09-30T20:31:32.097Z,9.50
2018-09-30T20:34:06.326Z,13.90
2018-09-30T20:36:40.551Z,15.07
2018-09-30T20:39:14.566Z,10.93
2018-09-30T20:41:48.811Z,13.70
2018-09-30T20:44:23.242Z,11.90
2018-09-30T20:46:57.374Z,11.37
2018-09-30T20:49:31.679Z,9.60
2018-09-30T20:52:06.335Z,10.17
2018-09-30T20:54:40.429Z,12.87
2018-09-30T20:57:15.230Z,12.57
2018-09-30T20:59:49.403Z,13.97
2018-09-30T21:02:23.599Z,18.93
2018-09-30T21:04:59.095Z,20.00
2018-09-30T21:07:33.627Z,21.30
2018-09-30T21:10:08.376Z,17.43
2018-09-30T21:12:43.215Z,15.23
2018-09-30T21:15:17.631Z,17.80
2018-09-30T21:17:52.516Z,14.17
2018-09-30T21:20:27.003Z,16.53
2018-09-30T21:23:01.536Z,14.47
2018-09-30T21:25:36.433Z,14.03
2018-09-30T21:28:12.009Z,16.37
2018-09-30T21:30:48.540Z,14.67
2018-09-30T21:33:23.689Z,11.77
2018-09-30T21:35:58.337Z,16.37
2018-09-30T21:38:32.859Z,11.00
2018-09-30T21:41:08.145Z,12.77
2018-09-30T21:43:42.434Z,12.23
2018-09-30T21:46:16.763Z,11.13
2018-09-30T21:48:51.237Z,13.13
2018-09-30T21:51:26.402Z,11.70
2018-09-30T21:54:01.016Z,12.77
2018-09-30T21:56:36.346Z,13.77
2018-09-30T21:59:10.862Z,10.53
2018-09-30T22:01:45.302Z,11.93
2018-09-30T22:04:19.715Z,11.87
2018-09-30T22:06:55.202Z,10.97
2018-09-30T22:09:29.522Z,12.50
2018-09-30T22:12:03.887Z,11.17
2018-09-30T22:14:38.621Z,10.60
2018-09-30T22:17:12.911Z,10.10
2018-09-30T22:19:47.210Z,14.87
2018-09-30T22:22:21.324Z,13.23
2018-09-30T22:24:55.732Z,12.80
2018-09-30T22:27:29.917Z,12.87
2018-09-30T22:30:04.665Z,12.60
2018-09-30T22:32:39.105Z,12.60
2018-09-30T22:35:13.385Z,9.73
2018-09-30T22:37:47.837Z,17.03
2018-09-30T22:40:22.326Z,11.07
2018-09-30T22:42:56.990Z,11.27
2018-09-30T22:45:31.078Z,13.73
2018-09-30T22:48:05.829Z,12.87
2018-09-30T22:50:41.019Z,12.97
2018-09-30T22:53:15.179Z,11.03
2018-09-30T22:55:49.406Z,10.37
2018-09-30T22:58:23.861Z,12.97
2018-09-30T23:00:58.025Z,12.70
2018-09-30T23:03:32.359Z,11.20
2018-09-30T23:06:06.830Z,11.10
2018-09-30T23:08:41.151Z,9.93
2018-09-30T23:11:15.524Z,10.87
2018-09-30T23:13:49.649Z,9.30
2018-09-30T23:16:24.120Z,15.67
2018-09-30T23:18:58.593Z,12.93
2018-09-30T23:21:33.354Z,11.20
2018-09-30T23:24:07.792Z,11.90
2018-09-30T23:26:42.447Z,10.80
2018-09-30T23:29:17.174Z,11.33
2018-09-30T23:31:52.206Z,11.50
2018-09-30T23:34:27.009Z,11.70
2018-09-30T23:37:01.884Z,9.70
2018-09-30T23:39:36.644Z,10.97
2018-09-30T23:42:10.941Z,12.60
2018-09-30T23:44:45.399Z,9.53
2018-09-30T23:47:19.485Z,12.27
2018-09-30T23:49:53.655Z,9.83
2018-09-30T23:52:28.346Z,12.83
2018-09-30T23:55:02.567Z,8.90
2018-09-30T23:57:37.820Z,10.47
